createdAt,value
2017-07-11T00:00:47.146Z,25.37
2017-07-11T00:03:15.551Z,24.70
2017-07-11T00:05:43.137Z,24.00
2017-07-11T00:08:11.499Z,25.93
2017-07-11T00:10:39.109Z,23.63
2017-07-11T00:13:06.711Z,24.17
2017-07-11T00:15:35.054Z,24.23
2017-07-11T00:18:02.696Z,25.00
2017-07-11T00:20:30.278Z,24.70
2017-07-11T00:22:57.865Z,22.57
2017-07-11T00:25:25.480Z,24.50
2017-07-11T00:27:53.088Z,25.50
2017-07-11T00:30:20.658Z,20.50
2017-07-11T00:32:48.298Z,22.47
2017-07-11T00:35:15.885Z,24.30
2017-07-11T00:37:43.471Z,22.57
2017-07-11T00:40:11.100Z,24.20
2017-07-11T00:42:38.684Z,22.13
2017-07-11T00:45:06.287Z,23.20
2017-07-11T00:47:33.925Z,24.60
2017-07-11T00:50:01.512Z,23.67
2017-07-11T00:52:29.095Z,23.17
2017-07-11T00:54:56.751Z,23.13
2017-07-11T00:57:24.346Z,22.33
2017-07-11T00:59:51.936Z,22.87
2017-07-11T01:02:19.564Z,23.37
2017-07-11T01:04:47.161Z,20.80
2017-07-11T01:07:15.507Z,23.10
2017-07-11T01:09:43.925Z,22.23
2017-07-11T01:12:11.517Z,25.27
2017-07-11T01:14:39.104Z,24.53
2017-07-11T01:17:06.754Z,24.03
2017-07-11T01:19:34.348Z,27.80
2017-07-11T01:22:01.921Z,24.60
2017-07-11T01:24:29.538Z,26.87
2017-07-11T01:26:57.124Z,25.57
2017-07-11T01:29:24.724Z,26.80
2017-07-11T01:31:52.360Z,26.23
2017-07-11T01:34:19.955Z,26.73
2017-07-11T01:36:47.555Z,26.50
2017-07-11T01:39:15.177Z,28.13
2017-07-11T01:41:42.756Z,26.87
2017-07-11T01:44:11.195Z,26.40
2017-07-11T01:46:38.832Z,24.43
2017-07-11T01:49:06.435Z,26.93
2017-07-11T01:51:34.035Z,26.43
2017-07-11T01:54:01.668Z,26.60
2017-07-11T01:56:29.259Z,26.37
2017-07-11T01:58:56.855Z,25.23
2017-07-11T02:01:24.483Z,26.87
2017-07-11T02:03:52.068Z,25.47
2017-07-11T02:06:19.658Z,25.47
2017-07-11T02:08:47.306Z,24.47
2017-07-11T02:11:14.893Z,25.20
2017-07-11T02:13:42.481Z,25.13
2017-07-11T02:16:10.118Z,27.40
2017-07-11T02:18:37.705Z,27.13
2017-07-11T02:21:05.276Z,27.27
2017-07-11T02:23:32.903Z,26.37
2017-07-11T02:26:00.502Z,28.90
2017-07-11T02:28:28.098Z,28.57
2017-07-11T02:30:55.746Z,29.23
2017-07-11T02:33:23.358Z,29.70
2017-07-11T02:35:50.945Z,27.73
2017-07-11T02:38:18.579Z,27.67
2017-07-11T02:40:46.175Z,26.57
2017-07-11T02:43:13.774Z,26.57
2017-07-11T02:45:41.425Z,28.63
2017-07-11T02:48:09.012Z,25.53
2017-07-11T02:50:36.598Z,25.00
2017-07-11T02:53:04.227Z,29.73
2017-07-11T02:55:31.815Z,27.20
2017-07-11T02:58:00.171Z,25.67
2017-07-11T03:00:27.806Z,25.57
2017-07-11T03:02:55.378Z,26.70
2017-07-11T03:05:22.961Z,24.23
2017-07-11T03:07:50.591Z,26.10
2017-07-11T03:10:18.183Z,25.13
2017-07-11T03:12:45.783Z,26.97
2017-07-11T03:15:13.428Z,25.60
2017-07-11T03:17:41.013Z,25.77
2017-07-11T03:20:08.595Z,27.07
2017-07-11T03:22:36.219Z,29.30
2017-07-11T03:25:03.809Z,30.93
2017-07-11T03:27:31.396Z,29.50
2017-07-11T03:29:59.044Z,30.70
2017-07-11T03:32:26.636Z,30.47
2017-07-11T03:34:54.237Z,32.07
2017-07-11T03:37:22.647Z,30.40
2017-07-11T03:39:50.249Z,30.50
2017-07-11T03:42:17.822Z,31.17
2017-07-11T03:44:45.464Z,27.10
2017-07-11T03:47:13.060Z,30.60
2017-07-11T03:49:40.648Z,32.40
2017-07-11T03:52:08.271Z,30.40
2017-07-11T03:54:36.636Z,29.43
2017-07-11T03:57:04.999Z,28.73
2017-07-11T03:59:32.633Z,31.93
2017-07-11T04:02:00.974Z,30.50
2017-07-11T04:04:28.589Z,29.10
2017-07-11T04:06:56.216Z,30.80
2017-07-11T04:09:23.802Z,31.83
2017-07-11T04:11:51.389Z,32.23
2017-07-11T04:14:19.769Z,29.77
2017-07-11T04:16:47.379Z,32.07
2017-07-11T04:19:14.954Z,31.00
2017-07-11T04:21:42.579Z,29.47
2017-07-11T04:24:10.913Z,29.13
2017-07-11T04:26:38.509Z,30.37
2017-07-11T04:29:06.163Z,30.53
2017-07-11T04:31:33.990Z,30.30
2017-07-11T04:34:01.611Z,26.33
2017-07-11T04:36:29.243Z,26.57
2017-07-11T04:38:56.853Z,27.60
2017-07-11T04:41:24.453Z,24.70
2017-07-11T04:43:52.854Z,24.50
2017-07-11T04:46:20.443Z,25.47
2017-07-11T04:48:48.045Z,24.00
2017-07-11T04:51:15.718Z,22.83
2017-07-11T04:53:43.307Z,25.10
2017-07-11T04:56:11.532Z,23.57
2017-07-11T04:58:39.164Z,24.67
2017-07-11T05:01:06.768Z,24.03
2017-07-11T05:03:34.366Z,24.33
2017-07-11T05:06:02.169Z,25.77
2017-07-11T05:08:29.758Z,23.37
2017-07-11T05:10:57.344Z,22.70
2017-07-11T05:13:25.727Z,23.67
2017-07-11T05:15:53.316Z,23.17
2017-07-11T05:18:20.903Z,22.43
2017-07-11T05:20:48.551Z,22.57
2017-07-11T05:23:16.275Z,21.13
2017-07-11T05:25:44.627Z,21.50
2017-07-11T05:28:12.282Z,21.90
2017-07-11T05:30:40.647Z,23.43
2017-07-11T05:33:09.309Z,22.03
2017-07-11T05:35:37.722Z,19.97
2017-07-11T05:38:05.294Z,25.30
2017-07-11T05:40:32.899Z,22.93
2017-07-11T05:43:00.529Z,23.70
2017-07-11T05:45:28.120Z,26.00
2017-07-11T05:47:55.718Z,26.77
2017-07-11T05:50:23.369Z,25.93
2017-07-11T05:52:50.979Z,25.97
2017-07-11T05:55:18.583Z,25.80
2017-07-11T05:57:46.391Z,29.27
2017-07-11T06:00:13.979Z,27.97
2017-07-11T06:02:41.572Z,26.27
2017-07-11T06:05:10.005Z,28.10
2017-07-11T06:07:37.596Z,27.63
2017-07-11T06:10:05.183Z,27.97
2017-07-11T06:12:32.817Z,28.47
2017-07-11T06:15:00.424Z,30.17
2017-07-11T06:17:28.024Z,29.40
2017-07-11T06:19:55.635Z,29.30
2017-07-11T06:22:23.297Z,30.53
2017-07-11T06:24:50.904Z,29.60
2017-07-11T06:27:19.379Z,29.50
2017-07-11T06:29:46.986Z,31.30
2017-07-11T06:32:14.580Z,31.57
2017-07-11T06:34:42.220Z,31.17
2017-07-11T06:37:09.818Z,31.70
2017-07-11T06:39:37.399Z,31.60
2017-07-11T06:42:05.034Z,30.83
2017-07-11T06:44:32.628Z,32.50
2017-07-11T06:47:01.848Z,31.23
2017-07-11T06:49:30.234Z,29.30
2017-07-11T06:51:57.824Z,31.47
2017-07-11T06:54:25.483Z,32.03
2017-07-11T06:56:53.076Z,32.13
2017-07-11T06:59:20.662Z,30.27
2017-07-11T07:01:48.246Z,29.87
2017-07-11T07:04:16.673Z,31.60
2017-07-11T07:06:44.278Z,30.07
2017-07-11T07:09:11.872Z,30.23
2017-07-11T07:11:39.503Z,30.40
2017-07-11T07:14:07.082Z,31.90
2017-07-11T07:16:34.669Z,27.53
2017-07-11T07:19:02.294Z,28.90
2017-07-11T07:21:30.167Z,25.20
2017-07-11T07:23:57.756Z,27.73
2017-07-11T07:26:25.392Z,27.50
2017-07-11T07:28:52.978Z,24.83
2017-07-11T07:31:20.652Z,28.60
2017-07-11T07:33:48.295Z,28.67
2017-07-11T07:36:15.873Z,25.17
2017-07-11T07:38:43.465Z,24.00
2017-07-11T07:41:11.183Z,25.00
2017-07-11T07:43:38.774Z,26.30
2017-07-11T07:46:06.378Z,24.53
2017-07-11T07:48:35.592Z,24.30
2017-07-11T07:51:03.193Z,24.37
2017-07-11T07:53:31.556Z,23.30
2017-07-11T07:55:59.950Z,24.37
2017-07-11T07:58:27.549Z,24.50
2017-07-11T08:00:55.146Z,22.57
2017-07-11T08:03:22.817Z,23.90
2017-07-11T08:05:50.416Z,24.73
2017-07-11T08:08:18.029Z,26.00
2017-07-11T08:10:46.053Z,22.40
2017-07-11T08:13:13.669Z,22.70
2017-07-11T08:15:41.254Z,21.23
2017-07-11T08:18:08.896Z,18.40
2017-07-11T08:20:36.496Z,19.23
2017-07-11T08:23:04.101Z,17.63
2017-07-11T08:25:31.753Z,17.80
2017-07-11T08:27:59.358Z,17.60
2017-07-11T08:30:26.944Z,19.47
2017-07-11T08:32:54.569Z,19.07
2017-07-11T08:35:22.156Z,17.93
2017-07-11T08:37:50.508Z,19.43
2017-07-11T08:40:19.416Z,19.83
2017-07-11T08:42:47.011Z,18.70
2017-07-11T08:45:14.601Z,20.17
2017-07-11T08:47:42.215Z,19.63
2017-07-11T08:50:10.589Z,21.60
2017-07-11T08:52:38.190Z,21.37
2017-07-11T08:55:05.814Z,21.50
2017-07-11T08:57:33.414Z,21.83
2017-07-11T09:00:01.005Z,23.50
2017-07-11T09:02:28.643Z,26.17
2017-07-11T09:04:57.185Z,23.23
2017-07-11T09:07:24.776Z,24.23
2017-07-11T09:09:52.399Z,24.53
2017-07-11T09:12:19.971Z,24.63
2017-07-11T09:14:47.584Z,22.47
2017-07-11T09:17:15.232Z,24.30
2017-07-11T09:19:42.843Z,23.17
2017-07-11T09:22:11.211Z,20.80
2017-07-11T09:24:38.834Z,21.67
2017-07-11T09:27:06.407Z,22.67
2017-07-11T09:29:34.006Z,21.97
2017-07-11T09:32:01.654Z,21.23
2017-07-11T09:34:29.257Z,20.67
2017-07-11T09:36:56.941Z,20.23
2017-07-11T09:39:24.566Z,20.17
2017-07-11T09:41:52.157Z,19.70
2017-07-11T09:44:19.721Z,21.33
2017-07-11T09:46:47.356Z,21.23
2017-07-11T09:49:14.973Z,21.83
2017-07-11T09:51:42.559Z,24.87
2017-07-11T09:54:10.195Z,22.80
2017-07-11T09:56:38.554Z,23.93
2017-07-11T09:59:06.900Z,22.50
2017-07-11T10:01:35.304Z,24.57
2017-07-11T10:04:02.900Z,22.33
2017-07-11T10:06:30.496Z,21.07
2017-07-11T10:08:58.116Z,22.20
2017-07-11T10:11:26.546Z,19.70
2017-07-11T10:13:54.140Z,19.77
2017-07-11T10:16:21.794Z,20.57
2017-07-11T10:18:49.401Z,19.30
2017-07-11T10:21:17.777Z,17.00
2017-07-11T10:23:45.395Z,16.97
2017-07-11T10:26:12.983Z,18.47
2017-07-11T10:28:40.591Z,18.23
2017-07-11T10:31:08.988Z,16.10
2017-07-11T10:33:36.580Z,18.33
2017-07-11T10:36:04.190Z,16.23
2017-07-11T10:38:31.838Z,16.70
2017-07-11T10:40:59.421Z,16.43
2017-07-11T10:43:27.060Z,16.53
2017-07-11T10:45:54.683Z,19.07
2017-07-11T10:48:22.309Z,21.63
2017-07-11T10:50:49.907Z,24.20
2017-07-11T10:53:17.537Z,26.10
2017-07-11T10:55:45.119Z,21.37
2017-07-11T10:58:12.694Z,28.13
2017-07-11T11:00:40.320Z,28.17
2017-07-11T11:03:07.905Z,28.63
2017-07-11T11:05:35.485Z,30.80
2017-07-11T11:08:03.880Z,32.67
2017-07-11T11:10:31.477Z,30.07
2017-07-11T11:12:59.069Z,29.43
2017-07-11T11:15:26.696Z,26.27
2017-07-11T11:17:54.281Z,25.53
2017-07-11T11:20:21.864Z,23.67
2017-07-11T11:22:50.274Z,21.80
2017-07-11T11:25:17.841Z,21.30
2017-07-11T11:27:45.410Z,19.37
2017-07-11T11:30:13.019Z,18.57
2017-07-11T11:32:40.608Z,18.50
2017-07-11T11:35:08.942Z,20.00
2017-07-11T11:37:36.567Z,19.57
2017-07-11T11:40:04.153Z,20.07
2017-07-11T11:42:32.591Z,24.30
2017-07-11T11:45:00.227Z,23.23
2017-07-11T11:47:27.829Z,23.60
2017-07-11T11:49:55.421Z,25.60
2017-07-11T11:52:23.047Z,27.07
2017-07-11T11:54:50.640Z,26.70
2017-07-11T11:57:19.002Z,25.03
2017-07-11T11:59:46.626Z,25.60
2017-07-11T12:02:14.205Z,24.40
2017-07-11T12:04:42.548Z,23.07
2017-07-11T12:07:10.184Z,24.47
2017-07-11T12:09:37.758Z,22.10
2017-07-11T12:12:06.118Z,20.53
2017-07-11T12:14:34.516Z,20.73
2017-07-11T12:17:02.107Z,20.17
2017-07-11T12:19:30.466Z,20.67
2017-07-11T12:21:58.114Z,18.07
2017-07-11T12:24:26.484Z,20.70
2017-07-11T12:26:54.850Z,19.30
2017-07-11T12:29:23.244Z,21.23
2017-07-11T12:31:50.841Z,16.90
2017-07-11T12:34:18.454Z,19.43
2017-07-11T12:36:46.092Z,17.80
2017-07-11T12:39:13.677Z,19.20
2017-07-11T12:41:41.275Z,17.33
2017-07-11T12:44:08.913Z,17.00
2017-07-11T12:46:36.493Z,18.10
2017-07-11T12:49:04.106Z,18.20
2017-07-11T12:51:31.733Z,18.20
2017-07-11T12:53:59.309Z,18.63
2017-07-11T12:56:26.882Z,20.03
2017-07-11T12:58:54.522Z,17.57
2017-07-11T13:01:22.122Z,18.60
2017-07-11T13:03:49.730Z,17.60
2017-07-11T13:06:18.136Z,18.57
2017-07-11T13:08:46.244Z,17.73
2017-07-11T13:11:13.822Z,18.67
2017-07-11T13:13:41.448Z,12.20
2017-07-11T13:16:09.042Z,10.00
2017-07-11T13:18:36.611Z,8.00
2017-07-11T13:21:04.245Z,6.80
2017-07-11T13:23:31.813Z,7.30
2017-07-11T13:25:59.387Z,7.97
2017-07-11T13:28:27.024Z,10.20
2017-07-11T13:30:54.589Z,9.90
2017-07-11T13:33:22.167Z,10.53
2017-07-11T13:35:49.786Z,11.70
2017-07-11T13:38:17.409Z,12.57
2017-07-11T13:40:45.008Z,11.77
2017-07-11T13:43:12.635Z,12.07
2017-07-11T13:45:40.252Z,14.00
2017-07-11T13:48:07.863Z,11.60
2017-07-11T13:50:36.259Z,13.10
2017-07-11T13:53:03.843Z,11.43
2017-07-11T13:55:31.437Z,11.73
2017-07-11T13:57:59.068Z,10.97
2017-07-11T14:00:26.646Z,9.73
2017-07-11T14:02:54.246Z,9.63
2017-07-11T14:05:22.637Z,11.23
2017-07-11T14:07:50.206Z,9.47
2017-07-11T14:10:17.780Z,8.63
2017-07-11T14:12:45.407Z,10.00
2017-07-11T14:15:12.990Z,10.00
2017-07-11T14:17:41.336Z,9.87
2017-07-11T14:20:08.955Z,9.33
2017-07-11T14:22:36.559Z,10.50
2017-07-11T14:25:04.144Z,9.33
2017-07-11T14:27:31.764Z,9.70
2017-07-11T14:29:59.357Z,9.40
2017-07-11T14:32:26.946Z,9.73
2017-07-11T14:34:54.598Z,11.03
2017-07-11T14:37:22.213Z,13.53
2017-07-11T14:39:50.568Z,10.67
2017-07-11T14:42:18.199Z,10.90
2017-07-11T14:44:45.814Z,9.67
2017-07-11T14:47:13.405Z,9.30
2017-07-11T14:49:42.065Z,9.43
2017-07-11T14:52:09.639Z,8.40
2017-07-11T14:54:37.221Z,7.73
2017-07-11T14:57:04.869Z,9.10
2017-07-11T14:59:32.438Z,7.33
2017-07-11T15:02:00.013Z,8.27
2017-07-11T15:04:27.644Z,9.37
2017-07-11T15:06:55.998Z,7.80
2017-07-11T15:09:24.348Z,7.10
2017-07-11T15:11:51.984Z,6.70
2017-07-11T15:14:19.550Z,8.63
2017-07-11T15:16:47.893Z,7.07
2017-07-11T15:19:15.517Z,7.00
2017-07-11T15:21:43.091Z,6.97
2017-07-11T15:24:10.685Z,7.03
2017-07-11T15:26:38.308Z,7.60
2017-07-11T15:29:05.898Z,6.63
2017-07-11T15:31:34.265Z,7.90
2017-07-11T15:34:02.757Z,7.13
2017-07-11T15:36:31.220Z,7.90
2017-07-11T15:38:59.745Z,8.17
2017-07-11T15:41:29.215Z,6.63
2017-07-11T15:43:57.520Z,7.80
2017-07-11T15:46:25.976Z,7.00
2017-07-11T15:48:54.733Z,7.70
2017-07-11T15:51:23.428Z,10.17
2017-07-11T15:53:51.766Z,7.53
2017-07-11T15:56:20.203Z,8.97
2017-07-11T15:58:48.891Z,8.83
2017-07-11T16:01:18.089Z,7.70
2017-07-11T16:03:46.889Z,8.80
2017-07-11T16:06:15.667Z,7.73
2017-07-11T16:08:44.367Z,9.80
2017-07-11T16:11:12.895Z,7.70
2017-07-11T16:13:41.546Z,6.80
2017-07-11T16:16:10.124Z,5.90
2017-07-11T16:18:38.206Z,8.17
2017-07-11T16:21:07.373Z,6.13
2017-07-11T16:23:35.902Z,5.30
2017-07-11T16:26:04.526Z,6.17
2017-07-11T16:28:32.871Z,5.00
2017-07-11T16:31:01.249Z,5.10
2017-07-11T16:33:30.594Z,5.33
2017-07-11T16:35:59.131Z,5.90
2017-07-11T16:38:27.707Z,6.20
2017-07-11T16:40:56.371Z,6.23
2017-07-11T16:43:24.769Z,4.17
2017-07-11T16:45:52.432Z,2.73
2017-07-11T16:48:20.857Z,3.40
2017-07-11T16:50:48.441Z,3.27
2017-07-11T16:53:16.801Z,3.33
2017-07-11T16:55:45.494Z,3.07
2017-07-11T16:58:13.070Z,6.03
2017-07-11T17:00:40.657Z,5.30
2017-07-11T17:03:08.266Z,6.60
2017-07-11T17:05:35.849Z,6.43
2017-07-11T17:08:04.213Z,6.73
2017-07-11T17:10:32.624Z,6.43
2017-07-11T17:13:00.221Z,7.30
2017-07-11T17:15:28.564Z,6.50
2017-07-11T17:17:56.193Z,6.73
2017-07-11T17:20:23.785Z,6.23
2017-07-11T17:22:51.356Z,5.40
2017-07-11T17:25:18.984Z,6.43
2017-07-11T17:27:46.600Z,6.77
2017-07-11T17:30:14.957Z,6.70
2017-07-11T17:32:43.365Z,6.70
2017-07-11T17:35:10.939Z,6.40
2017-07-11T17:37:38.534Z,6.43
2017-07-11T17:42:36.152Z,6.90
2017-07-11T17:45:03.737Z,6.93
2017-07-11T17:47:31.398Z,6.90
2017-07-11T17:49:59.027Z,7.53
2017-07-11T17:52:26.639Z,7.10
2017-07-11T17:54:54.274Z,6.87
2017-07-11T17:57:21.860Z,7.00
2017-07-11T17:59:49.476Z,8.40
2017-07-11T18:02:17.878Z,7.13
2017-07-11T18:04:45.483Z,6.57
2017-07-11T18:07:13.132Z,6.67
2017-07-11T18:09:40.761Z,6.97
2017-07-11T18:12:08.329Z,8.27
2017-07-11T18:14:36.690Z,7.73
2017-07-11T18:17:05.070Z,8.30
2017-07-11T18:19:32.681Z,9.37
2017-07-11T18:22:01.042Z,7.23
2017-07-11T18:24:28.809Z,7.63
2017-07-11T18:26:56.414Z,8.10
2017-07-11T18:29:23.995Z,7.70
2017-07-11T18:31:51.655Z,7.73
2017-07-11T18:34:19.251Z,7.73
2017-07-11T18:36:46.845Z,6.87
2017-07-11T18:39:14.488Z,7.63
2017-07-11T18:41:42.095Z,7.13
2017-07-11T18:44:09.681Z,6.40
2017-07-11T18:46:37.304Z,7.13
2017-07-11T18:49:05.695Z,7.50
2017-07-11T18:51:33.287Z,6.10
2017-07-11T18:54:00.932Z,7.20
2017-07-11T18:56:28.527Z,5.27
2017-07-11T18:58:56.112Z,4.93
2017-07-11T19:01:23.742Z,4.70
2017-07-11T19:03:51.327Z,5.30
2017-07-11T19:06:18.934Z,5.00
2017-07-11T19:08:46.581Z,4.47
2017-07-11T19:11:14.169Z,4.07
2017-07-11T19:13:42.520Z,4.40
2017-07-11T19:16:10.909Z,4.43
2017-07-11T19:18:38.504Z,4.60
2017-07-11T19:21:06.107Z,4.93
2017-07-11T19:23:33.736Z,3.80
2017-07-11T19:26:01.335Z,4.13
2017-07-11T19:28:28.921Z,4.97
2017-07-11T19:30:57.326Z,4.53
2017-07-11T19:33:24.907Z,5.13
2017-07-11T19:35:52.496Z,4.87
2017-07-11T19:38:20.145Z,4.40
2017-07-11T19:40:47.942Z,4.57
2017-07-11T19:43:15.568Z,4.40
2017-07-11T19:45:43.907Z,4.80
2017-07-11T19:48:11.560Z,4.13
2017-07-11T19:50:39.649Z,4.50
2017-07-11T19:53:07.281Z,3.87
2017-07-11T19:55:34.851Z,3.67
2017-07-11T19:58:02.434Z,3.73
2017-07-11T20:00:30.046Z,3.70
2017-07-11T20:02:57.627Z,3.40
2017-07-11T20:05:25.215Z,3.80
2017-07-11T20:07:52.845Z,4.37
2017-07-11T20:10:20.415Z,4.23
2017-07-11T20:12:48.002Z,4.53
2017-07-11T20:15:15.647Z,4.00
2017-07-11T20:17:43.247Z,4.30
2017-07-11T20:20:11.596Z,4.73
2017-07-11T20:22:39.232Z,4.47
2017-07-11T20:25:06.823Z,4.40
2017-07-11T20:27:34.419Z,3.70
2017-07-11T20:30:02.026Z,5.03
2017-07-11T20:32:29.604Z,5.40
2017-07-11T20:34:57.184Z,5.50
2017-07-11T20:37:24.829Z,5.00
2017-07-11T20:39:52.413Z,4.80
2017-07-11T20:42:20.002Z,4.90
2017-07-11T20:44:47.640Z,4.77
2017-07-11T20:47:15.230Z,5.50
2017-07-11T20:49:42.801Z,5.00
2017-07-11T20:52:10.419Z,5.40
2017-07-11T20:54:37.982Z,5.73
2017-07-11T20:57:05.573Z,5.70
2017-07-11T20:59:33.207Z,6.20
2017-07-11T21:02:00.779Z,6.00
2017-07-11T21:04:28.364Z,5.70
2017-07-11T21:06:55.984Z,6.73
2017-07-11T21:09:23.582Z,5.97
2017-07-11T21:11:51.173Z,6.70
2017-07-11T21:14:18.786Z,6.00
2017-07-11T21:16:46.359Z,6.30
2017-07-11T21:19:13.940Z,6.43
2017-07-11T21:21:41.573Z,5.90
2017-07-11T21:24:09.159Z,5.83
2017-07-11T21:26:36.727Z,6.10
2017-07-11T21:29:04.361Z,5.63
2017-07-11T21:31:32.704Z,6.50
2017-07-11T21:34:00.291Z,6.00
2017-07-11T21:36:27.956Z,6.57
2017-07-11T21:38:55.557Z,6.80
2017-07-11T21:41:23.923Z,6.70
2017-07-11T21:43:52.317Z,7.10
2017-07-11T21:46:19.904Z,6.20
2017-07-11T21:48:47.488Z,6.43
2017-07-11T21:51:15.108Z,5.30
2017-07-11T21:53:42.691Z,6.40
2017-07-11T21:56:10.286Z,6.07
2017-07-11T21:58:37.912Z,6.50
2017-07-11T22:01:05.482Z,6.70
2017-07-11T22:03:33.049Z,6.10
2017-07-11T22:06:00.662Z,5.60
2017-07-11T22:08:28.247Z,6.90
2017-07-11T22:10:55.837Z,7.07
2017-07-11T22:13:23.455Z,7.20
2017-07-11T22:15:51.036Z,7.30
2017-07-11T22:18:18.612Z,7.63
2017-07-11T22:20:46.247Z,7.97
2017-07-11T22:23:14.600Z,7.70
2017-07-11T22:25:42.191Z,7.80
2017-07-11T22:28:09.820Z,8.70
2017-07-11T22:30:37.407Z,9.87
2017-07-11T22:33:04.999Z,9.93
2017-07-11T22:35:32.622Z,9.67
2017-07-11T22:38:00.214Z,9.77
2017-07-11T22:40:27.787Z,9.80
2017-07-11T22:42:55.443Z,11.13
2017-07-11T22:45:23.078Z,9.00
2017-07-11T22:47:50.664Z,9.27
2017-07-11T22:50:18.306Z,10.70
2017-07-11T22:52:46.664Z,12.40
2017-07-11T22:55:15.007Z,10.53
2017-07-11T22:57:42.649Z,10.70
2017-07-11T23:00:10.232Z,10.90
2017-07-11T23:02:37.831Z,11.47
2017-07-11T23:05:05.493Z,10.73
2017-07-11T23:07:34.124Z,10.37
2017-07-11T23:10:01.709Z,10.53
2017-07-11T23:12:30.111Z,12.40
2017-07-11T23:14:57.695Z,10.23
2017-07-11T23:17:25.293Z,10.90
2017-07-11T23:19:52.928Z,11.03
2017-07-11T23:22:20.514Z,11.53
2017-07-11T23:24:48.115Z,11.03
2017-07-11T23:27:15.752Z,11.50
2017-07-11T23:29:44.099Z,10.83
2017-07-11T23:32:11.702Z,11.20
2017-07-11T23:34:39.333Z,10.17
2017-07-11T23:37:06.919Z,10.10
2017-07-11T23:39:34.494Z,10.80
2017-07-11T23:42:02.128Z,10.33
2017-07-11T23:44:29.703Z,11.57
2017-07-11T23:46:57.294Z,12.27
2017-07-11T23:49:24.949Z,10.50
2017-07-11T23:51:52.536Z,11.00
2017-07-11T23:54:20.106Z,10.73
2017-07-11T23:56:47.732Z,11.20
2017-07-11T23:59:15.328Z,11.90
